createdAt,value
2022-11-05T00:00:29.655Z,84.88
2022-11-05T00:03:16.066Z,86.06
2022-11-05T00:06:07.276Z,86.89
2022-11-05T00:08:53.666Z,86.41
2022-11-05T00:11:41.052Z,86.48
2022-11-05T00:14:26.596Z,86.28
2022-11-05T00:16:53.908Z,87.00
2022-11-05T00:19:21.042Z,87.59
2022-11-05T00:22:06.843Z,87.76
2022-11-05T00:24:52.541Z,87.58
2022-11-05T00:27:20.050Z,87.34
2022-11-05T00:29:47.291Z,87.12
2022-11-05T00:32:14.677Z,87.03
2022-11-05T00:34:42.108Z,86.53
2022-11-05T00:37:09.408Z,86.59
2022-11-05T00:39:36.666Z,86.70
2022-11-05T00:42:22.649Z,87.08
2022-11-05T00:45:02.286Z,87.73
2022-11-05T00:47:50.480Z,88.37
2022-11-05T00:50:19.337Z,88.01
2022-11-05T00:52:57.803Z,87.81
2022-11-05T00:55:34.814Z,87.55
2022-11-05T00:58:03.682Z,87.81
2022-11-05T01:00:33.364Z,88.05
2022-11-05T01:03:03.740Z,88.06
2022-11-05T01:05:33.000Z,87.86
2022-11-05T01:08:01.507Z,87.58
2022-11-05T01:10:30.125Z,87.90
2022-11-05T01:12:57.671Z,88.15
2022-11-05T01:15:25.331Z,88.18
2022-11-05T01:17:52.607Z,88.42
2022-11-05T01:20:19.994Z,88.06
2022-11-05T01:22:47.208Z,88.36
2022-11-05T01:25:14.813Z,87.90
2022-11-05T01:27:42.361Z,87.51
2022-11-05T01:30:10.220Z,87.33
2022-11-05T01:32:38.365Z,87.40
2022-11-05T01:35:07.517Z,87.67
2022-11-05T01:37:35.785Z,88.17
2022-11-05T01:40:04.041Z,88.55
2022-11-05T01:42:32.529Z,88.22
2022-11-05T01:45:12.506Z,87.97
2022-11-05T01:47:57.942Z,88.24
2022-11-05T01:50:40.762Z,88.19
2022-11-05T01:53:38.450Z,88.25
2022-11-05T01:56:15.248Z,88.17
2022-11-05T01:59:01.219Z,88.01
2022-11-05T02:01:28.807Z,88.05
2022-11-05T02:04:02.375Z,87.71
2022-11-05T02:06:33.678Z,87.92
2022-11-05T02:09:43.984Z,88.38
2022-11-05T02:12:13.800Z,88.31
2022-11-05T02:14:41.130Z,88.34
2022-11-05T02:17:28.561Z,88.04
2022-11-05T02:19:56.805Z,88.69
2022-11-05T02:23:01.163Z,88.53
2022-11-05T02:26:05.713Z,88.72
2022-11-05T02:28:52.314Z,88.67
2022-11-05T02:31:58.203Z,88.84
2022-11-05T02:34:45.427Z,88.66
2022-11-05T02:37:15.499Z,88.77
2022-11-05T02:40:01.601Z,89.10
2022-11-05T02:42:44.641Z,88.55
2022-11-05T02:46:05.833Z,88.32
2022-11-05T02:48:59.297Z,88.82
2022-11-05T02:51:39.491Z,88.88
2022-11-05T02:54:14.675Z,89.34
2022-11-05T02:56:46.561Z,89.13
2022-11-05T02:59:13.999Z,89.12
2022-11-05T03:01:44.529Z,88.78
2022-11-05T03:04:16.657Z,88.76
2022-11-05T03:07:00.238Z,88.48
2022-11-05T03:09:49.110Z,88.12
2022-11-05T03:12:28.764Z,87.82
2022-11-05T03:15:26.678Z,88.29
2022-11-05T03:18:37.032Z,88.29
2022-11-05T03:21:17.342Z,88.68
2022-11-05T03:23:47.927Z,88.63
2022-11-05T03:26:36.052Z,88.15
2022-11-05T03:29:08.932Z,87.78
2022-11-05T03:31:38.714Z,88.23
2022-11-05T03:34:09.550Z,87.83
2022-11-05T03:36:53.963Z,87.77
2022-11-05T03:39:29.561Z,88.20
2022-11-05T03:41:58.901Z,87.83
2022-11-05T03:44:31.957Z,87.99
2022-11-05T03:47:08.316Z,87.72
2022-11-05T03:49:40.812Z,87.77
2022-11-05T03:52:14.455Z,87.97
2022-11-05T03:54:42.298Z,88.32
2022-11-05T03:57:18.637Z,88.20
2022-11-05T03:59:49.549Z,88.17
2022-11-05T04:02:19.565Z,87.91
2022-11-05T04:04:47.544Z,87.84
2022-11-05T04:07:33.523Z,87.50
2022-11-05T04:10:19.327Z,87.90
2022-11-05T04:13:05.156Z,87.59
2022-11-05T04:15:52.327Z,87.90
2022-11-05T04:18:19.822Z,88.15
2022-11-05T04:21:05.504Z,88.01
2022-11-05T04:23:51.760Z,88.38
2022-11-05T04:26:23.598Z,88.37
2022-11-05T04:29:10.493Z,88.48
2022-11-05T04:31:38.717Z,90.47
2022-11-05T04:34:06.437Z,89.83
2022-11-05T04:36:34.260Z,89.68
2022-11-05T04:39:01.758Z,89.89
2022-11-05T04:41:29.248Z,90.13
2022-11-05T04:43:56.588Z,90.20
2022-11-05T04:46:23.843Z,89.83
2022-11-05T04:48:51.406Z,89.61
2022-11-05T04:51:18.662Z,89.39
2022-11-05T04:53:46.083Z,89.52
2022-11-05T04:56:21.811Z,88.94
2022-11-05T04:58:49.811Z,89.90
2022-11-05T05:01:20.792Z,90.42
2022-11-05T05:03:52.220Z,90.00
2022-11-05T05:06:20.420Z,90.34
2022-11-05T05:08:48.986Z,89.68
2022-11-05T05:11:19.666Z,89.22
2022-11-05T05:13:47.751Z,88.96
2022-11-05T05:16:22.414Z,89.18
2022-11-05T05:18:50.646Z,89.42
2022-11-05T05:21:38.083Z,89.19
2022-11-05T05:24:09.141Z,88.99
2022-11-05T05:26:37.984Z,89.03
2022-11-05T05:29:05.933Z,88.84
2022-11-05T05:31:34.555Z,88.74
2022-11-05T05:34:02.056Z,88.72
2022-11-05T05:36:29.560Z,88.75
2022-11-05T05:38:57.199Z,88.48
2022-11-05T05:41:24.880Z,88.70
2022-11-05T05:43:52.621Z,88.60
2022-11-05T05:46:19.989Z,88.65
2022-11-05T05:48:52.133Z,88.33
2022-11-05T05:51:20.106Z,88.36
2022-11-05T05:53:47.525Z,89.03
2022-11-05T05:56:15.363Z,88.88
2022-11-05T05:58:42.651Z,89.00
2022-11-05T06:01:18.271Z,88.77
2022-11-05T06:03:46.449Z,88.86
2022-11-05T06:06:14.987Z,89.21
2022-11-05T06:08:43.186Z,89.69
2022-11-05T06:11:10.455Z,90.02
2022-11-05T06:13:38.122Z,90.50
2022-11-05T06:16:08.142Z,90.94
2022-11-05T06:18:36.240Z,91.16
2022-11-05T06:21:05.560Z,92.40
2022-11-05T06:23:34.306Z,92.31
2022-11-05T06:26:02.892Z,92.86
2022-11-05T06:28:30.504Z,93.20
2022-11-05T06:30:58.493Z,93.06
2022-11-05T06:33:27.022Z,93.19
2022-11-05T06:35:54.646Z,93.20
2022-11-05T06:38:21.847Z,92.29
2022-11-05T06:40:49.201Z,92.16
2022-11-05T06:43:16.412Z,91.42
2022-11-05T06:45:44.086Z,91.16
2022-11-05T06:48:11.459Z,91.04
2022-11-05T06:50:38.761Z,90.70
2022-11-05T06:53:06.175Z,90.47
2022-11-05T06:55:33.677Z,90.81
2022-11-05T06:58:01.124Z,90.74
2022-11-05T07:00:29.170Z,91.03
2022-11-05T07:03:07.213Z,90.74
2022-11-05T07:05:37.494Z,90.76
2022-11-05T07:08:04.762Z,90.03
2022-11-05T07:10:32.120Z,90.20
2022-11-05T07:13:02.527Z,90.21
2022-11-05T07:15:33.860Z,89.73
2022-11-05T07:18:02.298Z,91.07
2022-11-05T07:20:33.962Z,91.03
2022-11-05T07:23:04.130Z,92.47
2022-11-05T07:25:33.432Z,92.57
2022-11-05T07:28:01.455Z,93.17
2022-11-05T07:30:29.930Z,92.46
2022-11-05T07:32:57.280Z,92.15
2022-11-05T07:35:25.486Z,91.20
2022-11-05T07:37:54.292Z,90.86
2022-11-05T07:40:22.922Z,90.09
2022-11-05T07:42:52.939Z,90.44
2022-11-05T07:45:20.656Z,89.58
2022-11-05T07:47:50.774Z,89.59
2022-11-05T07:50:20.394Z,88.41
2022-11-05T07:52:50.989Z,87.36
2022-11-05T07:55:19.719Z,86.38
2022-11-05T07:57:49.240Z,85.68
2022-11-05T08:00:21.978Z,84.69
2022-11-05T08:03:09.521Z,84.86
2022-11-05T08:05:39.617Z,84.53
2022-11-05T08:08:08.602Z,84.38
2022-11-05T08:10:36.981Z,83.00
2022-11-05T08:13:05.912Z,82.89
2022-11-05T08:15:33.876Z,82.11
2022-11-05T08:18:03.378Z,80.97
2022-11-05T08:20:31.704Z,79.37
2022-11-05T08:22:59.223Z,80.14
2022-11-05T08:25:26.984Z,77.34
2022-11-05T08:28:06.723Z,74.55
2022-11-05T08:30:35.286Z,75.01
2022-11-05T08:33:08.936Z,74.05
2022-11-05T08:35:38.116Z,72.84
2022-11-05T08:38:07.009Z,73.15
2022-11-05T08:40:36.295Z,74.58
2022-11-05T08:43:05.616Z,74.70
2022-11-05T08:45:33.657Z,73.94
2022-11-05T08:48:02.725Z,74.29
2022-11-05T08:50:30.323Z,73.85
2022-11-05T08:52:58.070Z,73.06
2022-11-05T08:55:26.166Z,71.98
2022-11-05T08:58:01.634Z,72.18
2022-11-05T09:00:32.073Z,71.81
2022-11-05T09:03:01.350Z,71.13
2022-11-05T09:05:29.830Z,69.84
2022-11-05T09:08:00.890Z,69.63
2022-11-05T09:10:29.062Z,69.27
2022-11-05T09:12:56.536Z,68.82
2022-11-05T09:15:24.694Z,68.43
2022-11-05T09:17:51.997Z,68.94
2022-11-05T09:20:19.694Z,68.85
2022-11-05T09:22:47.016Z,68.19
2022-11-05T09:25:15.954Z,68.37
2022-11-05T09:27:43.891Z,68.65
2022-11-05T09:30:12.523Z,68.38
2022-11-05T09:32:39.912Z,68.00
2022-11-05T09:35:08.043Z,68.21
2022-11-05T09:37:37.804Z,67.87
2022-11-05T09:40:05.831Z,67.85
2022-11-05T09:42:40.068Z,67.52
2022-11-05T09:45:18.987Z,67.63
2022-11-05T09:47:52.357Z,67.69
2022-11-05T09:50:26.034Z,67.38
2022-11-05T09:52:53.285Z,67.27
2022-11-05T09:55:27.212Z,67.24
2022-11-05T09:57:59.238Z,66.59
2022-11-05T10:00:27.293Z,66.36
2022-11-05T10:03:04.274Z,65.87
2022-11-05T10:05:34.240Z,65.96
2022-11-05T10:08:17.328Z,65.31
2022-11-05T10:11:02.639Z,65.22
2022-11-05T10:13:37.381Z,65.25
2022-11-05T10:16:22.111Z,65.41
2022-11-05T10:18:57.507Z,65.15
2022-11-05T10:21:51.307Z,64.53
2022-11-05T10:24:15.920Z,65.22
2022-11-05T10:26:46.752Z,64.88
2022-11-05T10:29:20.553Z,64.88
2022-11-05T10:31:48.113Z,65.14
2022-11-05T10:34:17.919Z,64.60
2022-11-05T10:36:45.166Z,64.46
2022-11-05T10:39:15.471Z,64.79
2022-11-05T10:42:03.100Z,64.85
2022-11-05T10:44:39.367Z,64.09
2022-11-05T10:47:33.689Z,64.83
2022-11-05T10:50:04.023Z,68.12
2022-11-05T10:52:51.800Z,65.90
2022-11-05T10:55:26.084Z,62.28
2022-11-05T10:57:53.734Z,63.27
2022-11-05T11:00:23.753Z,63.43
2022-11-05T11:02:58.845Z,63.16
2022-11-05T11:05:32.840Z,62.83
2022-11-05T11:08:06.795Z,62.98
2022-11-05T11:10:42.299Z,63.62
2022-11-05T11:13:48.436Z,63.34
2022-11-05T11:16:20.548Z,63.15
2022-11-05T11:18:54.154Z,63.59
2022-11-05T11:21:23.388Z,63.60
2022-11-05T11:24:07.047Z,63.59
2022-11-05T11:26:40.034Z,63.60
2022-11-05T11:29:16.551Z,63.15
2022-11-05T11:31:44.127Z,62.70
2022-11-05T11:34:24.511Z,62.48
2022-11-05T11:36:56.607Z,62.92
2022-11-05T11:39:27.460Z,62.97
2022-11-05T11:41:58.539Z,62.72
2022-11-05T11:44:30.977Z,63.00
2022-11-05T11:47:05.206Z,62.56
2022-11-05T11:49:46.365Z,62.62
2022-11-05T11:52:24.343Z,61.49
2022-11-05T11:54:53.108Z,62.14
2022-11-05T11:57:29.720Z,61.11
2022-11-05T12:00:14.685Z,61.61
2022-11-05T12:02:48.039Z,61.67
2022-11-05T12:05:53.156Z,61.54
2022-11-05T12:08:47.629Z,62.45
2022-11-05T12:11:24.176Z,61.83
2022-11-05T12:14:02.373Z,62.21
2022-11-05T12:17:09.423Z,61.95
2022-11-05T12:19:58.691Z,61.89
2022-11-05T12:22:41.126Z,63.02
2022-11-05T12:25:23.442Z,63.09
2022-11-05T12:28:12.052Z,62.91
2022-11-05T12:30:58.017Z,63.26
2022-11-05T12:33:37.458Z,63.69
2022-11-05T12:36:35.471Z,63.74
2022-11-05T12:39:02.954Z,63.71
2022-11-05T12:41:44.295Z,63.77
2022-11-05T12:44:36.933Z,63.11
2022-11-05T12:47:10.412Z,62.50
2022-11-05T12:49:50.128Z,63.67
2022-11-05T12:52:37.573Z,64.10
2022-11-05T12:55:11.958Z,64.63
2022-11-05T12:57:46.126Z,65.37
2022-11-05T13:00:28.273Z,65.81
2022-11-05T13:03:07.371Z,65.55
2022-11-05T13:05:39.346Z,65.26
2022-11-05T13:08:12.425Z,65.52
2022-11-05T13:11:03.595Z,65.44
2022-11-05T13:13:40.901Z,64.87
2022-11-05T13:16:14.137Z,64.26
2022-11-05T13:18:41.437Z,64.45
2022-11-05T13:21:10.817Z,65.05
2022-11-05T13:23:49.955Z,64.66
2022-11-05T13:26:24.371Z,64.68
2022-11-05T13:28:59.585Z,64.18
2022-11-05T13:31:36.613Z,63.50
2022-11-05T13:34:11.087Z,63.43
2022-11-05T13:37:09.559Z,63.24
2022-11-05T13:39:44.538Z,63.85
2022-11-05T13:42:36.497Z,63.70
2022-11-05T13:45:45.555Z,63.76
2022-11-05T13:48:35.518Z,63.98
2022-11-05T13:51:33.540Z,64.42
2022-11-05T13:54:41.058Z,64.32
2022-11-05T13:57:08.346Z,64.00
2022-11-05T13:59:41.778Z,64.32
2022-11-05T14:02:22.744Z,64.72
2022-11-05T14:05:01.224Z,64.92
2022-11-05T14:07:32.217Z,65.28
2022-11-05T14:10:10.462Z,65.02
2022-11-05T14:12:40.370Z,65.13
2022-11-05T14:15:29.783Z,65.15
2022-11-05T14:18:06.201Z,65.54
2022-11-05T14:20:33.319Z,66.39
2022-11-05T14:23:40.590Z,66.51
2022-11-05T14:26:15.857Z,66.42
2022-11-05T14:28:48.861Z,65.86
2022-11-05T14:31:19.214Z,66.63
2022-11-05T14:33:55.732Z,66.69
2022-11-05T14:36:28.349Z,66.07
2022-11-05T14:39:04.290Z,65.88
2022-11-05T14:41:31.966Z,66.42
2022-11-05T14:44:07.337Z,66.96
2022-11-05T14:46:43.696Z,66.49
2022-11-05T14:49:25.544Z,67.49
2022-11-05T14:51:58.742Z,67.14
2022-11-05T14:54:45.438Z,66.42
2022-11-05T14:57:33.500Z,66.75
2022-11-05T15:00:01.266Z,67.38
2022-11-05T15:02:37.479Z,67.33
2022-11-05T15:05:30.994Z,67.58
2022-11-05T15:07:59.703Z,67.82
2022-11-05T15:10:32.191Z,68.09
2022-11-05T15:13:05.081Z,68.30
2022-11-05T15:15:41.823Z,68.34
2022-11-05T15:18:34.420Z,69.09
2022-11-05T15:21:05.201Z,69.17
2022-11-05T15:23:41.361Z,69.71
2022-11-05T15:26:28.379Z,70.04
2022-11-05T15:28:56.750Z,70.41
2022-11-05T15:31:37.000Z,70.40
2022-11-05T15:34:10.589Z,70.39
2022-11-05T15:36:37.676Z,70.71
2022-11-05T15:39:29.287Z,70.96
2022-11-05T15:41:59.379Z,71.46
2022-11-05T15:44:31.616Z,73.37
2022-11-05T15:47:07.505Z,72.09
2022-11-05T15:49:35.045Z,71.70
2022-11-05T15:52:02.285Z,71.64
2022-11-05T15:54:30.798Z,72.33
2022-11-05T15:56:59.669Z,72.55
2022-11-05T15:59:29.797Z,72.99
2022-11-05T16:02:05.467Z,72.99
2022-11-05T16:04:35.197Z,73.05
2022-11-05T16:07:10.262Z,73.37
2022-11-05T16:09:40.633Z,73.76
2022-11-05T16:12:12.268Z,73.84
2022-11-05T16:14:40.286Z,73.89
2022-11-05T16:17:22.954Z,74.14
2022-11-05T16:19:51.022Z,74.45
2022-11-05T16:22:18.867Z,74.94
2022-11-05T16:24:47.228Z,74.61
2022-11-05T16:27:21.185Z,75.53
2022-11-05T16:29:51.544Z,75.44
2022-11-05T16:32:31.087Z,74.83
2022-11-05T16:35:04.721Z,75.21
2022-11-05T16:37:41.250Z,75.03
2022-11-05T16:40:20.274Z,74.75
2022-11-05T16:42:48.638Z,75.25
2022-11-05T16:45:17.435Z,75.42
2022-11-05T16:47:45.470Z,75.83
2022-11-05T16:50:26.194Z,75.46
2022-11-05T16:52:53.748Z,75.32
2022-11-05T16:55:21.223Z,75.02
2022-11-05T16:57:54.832Z,75.20
2022-11-05T17:00:23.262Z,75.64
2022-11-05T17:02:50.610Z,75.41
2022-11-05T17:05:21.906Z,76.18
2022-11-05T17:07:49.130Z,76.06
2022-11-05T17:10:16.495Z,76.40
2022-11-05T17:12:44.244Z,77.27
2022-11-05T17:15:18.493Z,77.30
2022-11-05T17:17:46.255Z,76.92
2022-11-05T17:20:26.762Z,76.06
2022-11-05T17:22:55.085Z,76.06
2022-11-05T17:25:22.406Z,76.39
2022-11-05T17:27:50.347Z,75.82
2022-11-05T17:30:18.059Z,76.30
2022-11-05T17:32:45.342Z,76.11
2022-11-05T17:35:12.970Z,75.65
2022-11-05T17:37:40.459Z,74.94
2022-11-05T17:40:10.495Z,75.31
2022-11-05T17:42:37.605Z,75.74
2022-11-05T17:45:05.417Z,75.86
2022-11-05T17:47:32.701Z,75.10
2022-11-05T17:49:59.879Z,75.94
2022-11-05T17:52:28.384Z,76.07
2022-11-05T17:54:55.530Z,76.43
2022-11-05T17:57:22.860Z,76.49
2022-11-05T17:59:49.969Z,76.61
2022-11-05T18:02:17.392Z,75.89
2022-11-05T18:04:44.848Z,75.49
2022-11-05T18:07:12.198Z,75.92
2022-11-05T18:09:39.386Z,74.94
2022-11-05T18:12:06.942Z,75.00
2022-11-05T18:14:34.423Z,75.03
2022-11-05T18:17:01.673Z,75.66
2022-11-05T18:19:29.638Z,75.74
2022-11-05T18:21:57.043Z,75.94
2022-11-05T18:24:24.299Z,75.66
2022-11-05T18:26:51.463Z,75.88
2022-11-05T18:29:18.726Z,75.74
2022-11-05T18:31:46.024Z,75.92
2022-11-05T18:34:13.313Z,76.64
2022-11-05T18:36:40.632Z,76.26
2022-11-05T18:39:08.678Z,76.66
2022-11-05T18:41:35.796Z,76.89
2022-11-05T18:44:04.501Z,77.00
2022-11-05T18:49:20.385Z,77.06
2022-11-05T18:51:47.538Z,77.03
2022-11-05T18:54:15.018Z,77.24
2022-11-05T18:56:45.587Z,76.80
2022-11-05T18:59:35.888Z,76.85
2022-11-05T19:02:02.194Z,77.04
2022-11-05T19:04:30.678Z,76.96
2022-11-05T19:07:01.668Z,77.98
2022-11-05T19:09:32.201Z,77.76
2022-11-05T19:11:59.522Z,78.47
2022-11-05T19:14:26.902Z,78.54
2022-11-05T19:16:54.223Z,80.50
2022-11-05T19:19:21.788Z,79.59
2022-11-05T19:21:50.618Z,79.63
2022-11-05T19:24:17.804Z,78.50
2022-11-05T19:26:45.206Z,77.97
2022-11-05T19:29:12.667Z,78.35
2022-11-05T19:31:40.027Z,78.42
2022-11-05T19:34:07.315Z,79.19
2022-11-05T19:36:34.771Z,80.24
2022-11-05T19:39:06.551Z,80.25
2022-11-05T19:41:33.854Z,80.29
2022-11-05T19:44:04.361Z,80.41
2022-11-05T19:46:32.225Z,80.39
2022-11-05T19:49:03.555Z,80.76
2022-11-05T19:51:32.110Z,81.08
2022-11-05T19:54:01.524Z,80.82
2022-11-05T19:56:31.259Z,80.69
2022-11-05T19:58:59.376Z,80.65
2022-11-05T20:01:28.429Z,80.48
2022-11-05T20:03:58.136Z,80.00
2022-11-05T20:06:38.949Z,79.72
2022-11-05T20:09:27.135Z,79.50
2022-11-05T20:11:56.647Z,80.71
2022-11-05T20:14:25.910Z,80.47
2022-11-05T20:16:53.855Z,81.14
2022-11-05T20:19:22.445Z,80.18
2022-11-05T20:21:50.024Z,79.03
2022-11-05T20:24:24.078Z,79.07
2022-11-05T20:26:56.722Z,79.16
2022-11-05T20:29:30.632Z,78.66
2022-11-05T20:32:02.950Z,79.42
2022-11-05T20:34:31.132Z,79.47
2022-11-05T20:36:58.508Z,79.30
2022-11-05T20:39:26.499Z,79.46
2022-11-05T20:41:53.632Z,79.30
2022-11-05T20:44:21.039Z,79.16
2022-11-05T20:46:48.373Z,78.90
2022-11-05T20:49:16.627Z,79.65
2022-11-05T20:51:46.269Z,79.61
2022-11-05T20:54:13.320Z,79.92
2022-11-05T20:56:42.023Z,79.69
2022-11-05T20:59:09.287Z,80.05
2022-11-05T21:01:36.788Z,79.75
2022-11-05T21:04:04.368Z,79.64
2022-11-05T21:06:33.889Z,80.06
2022-11-05T21:09:01.774Z,80.00
2022-11-05T21:11:29.182Z,80.01
2022-11-05T21:13:56.247Z,80.18
2022-11-05T21:16:23.351Z,83.39
2022-11-05T21:18:50.750Z,81.07
2022-11-05T21:21:20.663Z,81.52
2022-11-05T21:23:48.539Z,81.08
2022-11-05T21:26:18.960Z,80.19
2022-11-05T21:28:46.184Z,80.03
2022-11-05T21:31:13.479Z,80.04
2022-11-05T21:33:41.062Z,80.17
2022-11-05T21:36:12.991Z,80.09
2022-11-05T21:38:41.235Z,80.78
2022-11-05T21:41:10.492Z,80.58
2022-11-05T21:43:38.635Z,80.76
2022-11-05T21:46:06.001Z,80.82
2022-11-05T21:48:34.317Z,80.79
2022-11-05T21:51:20.088Z,80.98
2022-11-05T21:54:05.675Z,80.47
2022-11-05T21:56:52.261Z,81.07
2022-11-05T21:59:41.022Z,82.29
2022-11-05T22:02:11.691Z,82.56
2022-11-05T22:04:41.406Z,82.29
2022-11-05T22:07:11.163Z,82.55
2022-11-05T22:09:38.590Z,82.42
2022-11-05T22:12:06.220Z,82.79
2022-11-05T22:14:34.454Z,82.72
2022-11-05T22:17:02.850Z,83.75
2022-11-05T22:19:31.044Z,84.50
2022-11-05T22:21:58.287Z,84.58
2022-11-05T22:24:25.715Z,84.45
2022-11-05T22:26:53.419Z,84.40
2022-11-05T22:29:20.643Z,84.30
2022-11-05T22:31:47.919Z,84.59
2022-11-05T22:34:15.023Z,85.14
2022-11-05T22:36:42.498Z,86.40
2022-11-05T22:39:12.022Z,86.36
2022-11-05T22:41:39.838Z,87.61
2022-11-05T22:44:07.182Z,89.05
2022-11-05T22:46:34.714Z,90.19
2022-11-05T22:49:02.163Z,91.17
2022-11-05T22:51:31.990Z,92.95
2022-11-05T22:54:00.529Z,93.79
2022-11-05T22:56:33.998Z,95.40
2022-11-05T22:59:01.386Z,96.42
2022-11-05T23:01:29.985Z,97.72
2022-11-05T23:03:58.950Z,98.08
2022-11-05T23:06:47.377Z,98.36
2022-11-05T23:09:41.910Z,98.18
2022-11-05T23:12:24.809Z,98.64
2022-11-05T23:14:53.394Z,99.21
2022-11-05T23:17:39.542Z,99.58
2022-11-05T23:20:30.031Z,100.00
2022-11-05T23:23:16.730Z,100.00
2022-11-05T23:25:44.599Z,100.00
2022-11-05T23:28:12.901Z,100.00
2022-11-05T23:31:03.954Z,100.00
2022-11-05T23:33:34.133Z,100.00
2022-11-05T23:36:20.464Z,100.00
2022-11-05T23:38:47.751Z,100.00
2022-11-05T23:41:33.577Z,100.00
2022-11-05T23:44:19.358Z,100.00
2022-11-05T23:47:04.878Z,100.00
2022-11-05T23:49:32.360Z,100.00
2022-11-05T23:51:59.505Z,100.00
2022-11-05T23:54:26.771Z,100.00
2022-11-05T23:56:54.150Z,100.00
2022-11-05T23:59:21.561Z,100.00
